Time;durP1;ratioP1;P1;durP2;ratioP2;P2;SDS_P1;SDS_P2;PMS_P1;PMS_P2;Temp;Humidity;BMP_temperature;BMP_pressure;BME280_temperature;BME280_humidity;BME280_pressure;Samples;Min_cycle;Max_cycle;Signal;HPM_P1;HPM_P2
2020/12/01 00:02:18;;;;;;;10.27;0.43;;;8.10;99.90;;;;;;5096153;28;20016;-72
2020/12/01 00:04:43;;;;;;;6.22;0.20;;;8.10;99.90;;;;;;5077467;28;20036;-72
2020/12/01 00:07:09;;;;;;;13.10;0.82;;;8.10;99.90;;;;;;5077206;28;20381;-72
2020/12/01 00:09:34;;;;;;;6.13;0.57;;;8.00;99.90;;;;;;5095669;28;20024;-72
2020/12/01 00:12:00;;;;;;;8.40;0.38;;;8.00;99.90;;;;;;5095856;28;20545;-72
2020/12/01 00:14:25;;;;;;;7.57;0.32;;;7.90;99.90;;;;;;5077145;28;20028;-72
2020/12/01 00:16:51;;;;;;;9.98;1.10;;;7.90;99.90;;;;;;5095345;28;20047;-72
2020/12/01 00:19:16;;;;;;;16.05;0.85;;;7.90;99.90;;;;;;5095488;28;20027;-73
2020/12/01 00:21:45;;;;;;;8.45;0.00;;;7.80;99.90;;;;;;5095440;28;20078;-72
2020/12/01 00:24:11;;;;;;;9.82;1.48;;;7.90;99.90;;;;;;5096105;28;20012;-72
2020/12/01 00:26:37;;;;;;;12.15;0.40;;;7.80;99.90;;;;;;5095267;28;20031;-72
2020/12/01 00:29:04;;;;;;;17.27;1.33;;;7.80;99.90;;;;;;5095865;28;20024;-72
2020/12/01 00:31:29;;;;;;;8.20;0.80;;;7.70;99.90;;;;;;5095856;28;20567;-72
2020/12/01 00:33:55;;;;;;;16.98;0.52;;;7.80;99.90;;;;;;5095664;28;20060;-72
2020/12/01 00:36:27;;;;;;;28.15;1.02;;;7.80;99.90;;;;;;5095873;28;20027;-72
2020/12/01 00:38:53;;;;;;;16.27;0.77;;;7.70;99.90;;;;;;5095682;28;20496;-72
2020/12/01 00:41:18;;;;;;;11.02;0.28;;;7.70;99.90;;;;;;5095136;28;20020;-72
2020/12/01 00:43:44;;;;;;;10.20;0.65;;;7.70;99.90;;;;;;5095428;28;20012;-72
2020/12/01 00:46:10;;;;;;;14.75;1.20;;;7.70;99.90;;;;;;5076890;28;20035;-72
2020/12/01 00:48:35;;;;;;;6.65;0.60;;;7.70;99.90;;;;;;5095248;28;20081;-72
2020/12/01 00:51:01;;;;;;;12.63;0.75;;;7.60;99.90;;;;;;5095112;28;20020;-72
2020/12/01 00:53:26;;;;;;;17.40;1.27;;;7.60;99.90;;;;;;5077453;28;20479;-72
2020/12/01 00:55:52;;;;;;;21.73;1.95;;;7.60;99.90;;;;;;5095170;28;20050;-72
2020/12/01 00:58:17;;;;;;;14.68;0.60;;;7.50;99.90;;;;;;5095394;28;20074;-72
2020/12/01 01:00:43;;;;;;;9.20;0.17;;;7.50;99.90;;;;;;5077031;28;20051;-72
2020/12/01 01:03:08;;;;;;;13.43;0.17;;;7.50;99.90;;;;;;5095077;28;20016;-72
2020/12/01 01:05:34;;;;;;;15.80;1.73;;;7.40;99.90;;;;;;5094756;28;20039;-72
2020/12/01 01:07:59;;;;;;;8.65;0.90;;;7.40;99.90;;;;;;5075981;28;20119;-72
2020/12/01 01:10:28;;;;;;;12.55;0.85;;;7.30;99.90;;;;;;5076586;28;20391;-72
2020/12/01 01:12:55;;;;;;;17.42;0.85;;;7.30;99.90;;;;;;5094895;28;20118;-72
2020/12/01 01:15:28;;;;;;;13.27;0.50;;;7.30;99.90;;;;;;5094904;28;20384;-72
2020/12/01 01:17:55;;;;;;;12.55;1.60;;;7.20;99.90;;;;;;5094753;28;20024;-72
2020/12/01 01:20:21;;;;;;;44.05;1.23;;;7.10;99.90;;;;;;5094864;28;20024;-73
2020/12/01 01:22:46;;;;;;;9.88;1.13;;;7.10;99.90;;;;;;5094652;28;20034;-72
2020/12/01 01:25:13;;;;;;;13.48;1.33;;;7.00;99.90;;;;;;5094478;28;20028;-72
2020/12/01 01:27:38;;;;;;;6.50;0.35;;;7.00;99.90;;;;;;5094745;28;20032;-72
2020/12/01 01:30:06;;;;;;;11.25;0.50;;;6.90;99.90;;;;;;5094016;28;20057;-72
2020/12/01 01:32:31;;;;;;;3.78;0.10;;;6.90;99.90;;;;;;5094133;28;20028;-72
2020/12/01 01:34:57;;;;;;;14.32;0.70;;;6.90;99.90;;;;;;5094325;28;20024;-72
2020/12/01 01:37:22;;;;;;;9.77;1.17;;;6.80;99.90;;;;;;5076183;28;20020;-72
2020/12/01 01:39:48;;;;;;;7.85;1.48;;;6.80;99.90;;;;;;5076168;28;20541;-72
2020/12/01 01:42:14;;;;;;;24.85;0.85;;;6.70;99.90;;;;;;5094285;28;20024;-72
2020/12/01 01:44:40;;;;;;;14.55;0.63;;;6.70;99.90;;;;;;5075862;28;20088;-72
2020/12/01 01:47:22;;;;;;;13.48;0.98;;;6.70;99.90;;;;;;5093724;28;20028;-72
2020/12/01 01:49:52;;;;;;;5.35;0.22;;;6.60;99.90;;;;;;5076205;28;20120;-72
2020/12/01 01:52:37;;;;;;;10.07;0.40;;;6.60;99.90;;;;;;5075873;28;20024;-72
2020/12/01 01:55:16;;;;;;;9.80;0.55;;;6.60;99.90;;;;;;5094030;28;20435;-72
2020/12/01 01:57:45;;;;;;;14.35;0.90;;;6.60;99.90;;;;;;5076107;28;20550;-72
2020/12/01 02:00:36;;;;;;;14.55;0.85;;;6.60;99.90;;;;;;5094044;28;20021;-72
2020/12/01 02:03:02;;;;;;;7.75;0.30;;;6.60;99.90;;;;;;5075923;28;20036;-72
2020/12/01 02:05:27;;;;;;;7.57;0.65;;;6.60;99.90;;;;;;5093701;28;20032;-72
2020/12/01 02:07:53;;;;;;;45.13;2.50;;;6.60;99.90;;;;;;5093981;28;20032;-72
2020/12/01 02:10:19;;;;;;;11.05;0.13;;;6.70;99.90;;;;;;5094242;28;20409;-72
2020/12/01 02:12:47;;;;;;;15.38;0.60;;;6.70;99.90;;;;;;5093950;28;20032;-72
2020/12/01 02:15:13;;;;;;;8.20;1.00;;;6.70;99.90;;;;;;5093652;28;20027;-72
2020/12/01 02:17:38;;;;;;;12.07;0.75;;;6.70;99.90;;;;;;5093942;28;20036;-72
2020/12/01 02:20:11;;;;;;;9.07;0.77;;;6.70;99.90;;;;;;5097313;28;20028;-72
2020/12/01 02:22:37;;;;;;;19.40;0.80;;;6.80;99.90;;;;;;5079465;28;20016;-72
2020/12/01 02:25:03;;;;;;;13.25;0.30;;;6.80;99.90;;;;;;5079478;28;20027;-72
2020/12/01 02:27:29;;;;;;;11.95;0.75;;;6.80;99.90;;;;;;5097856;28;20107;-72
2020/12/01 02:29:58;;;;;;;6.43;0.10;;;6.80;99.90;;;;;;5098148;28;20059;-72
2020/12/01 02:32:24;;;;;;;14.65;0.50;;;6.80;99.90;;;;;;5079279;28;20433;-72
2020/12/01 02:34:52;;;;;;;11.57;0.70;;;6.90;99.90;;;;;;5097289;28;20024;-72
2020/12/01 02:37:22;;;;;;;23.60;1.95;;;6.80;99.90;;;;;;5097115;28;20373;-72
2020/12/01 02:39:49;;;;;;;9.18;0.20;;;6.80;99.90;;;;;;5097812;28;20020;-72
2020/12/01 02:42:22;;;;;;;10.77;0.63;;;6.70;99.90;;;;;;5097841;28;20069;-72
2020/12/01 02:44:49;;;;;;;4.80;0.10;;;6.70;99.90;;;;;;5097139;28;20020;-72
2020/12/01 02:47:15;;;;;;;10.82;0.57;;;6.70;99.90;;;;;;5096834;28;20426;-72
2020/12/01 02:49:41;;;;;;;9.02;0.35;;;6.70;99.90;;;;;;5097380;28;20099;-72
2020/12/01 02:52:06;;;;;;;4.63;0.00;;;6.70;99.90;;;;;;5098033;28;20024;-72
2020/12/01 02:54:32;;;;;;;11.98;0.20;;;6.70;99.90;;;;;;5098398;28;20039;-72
2020/12/01 02:56:58;;;;;;;8.02;0.40;;;6.80;99.90;;;;;;5097555;28;20028;-71
2020/12/01 02:59:24;;;;;;;4.93;0.47;;;6.80;99.90;;;;;;5078857;28;20024;-72
2020/12/01 03:01:49;;;;;;;6.85;0.40;;;6.80;99.90;;;;;;5097216;28;20027;-72
2020/12/01 03:04:15;;;;;;;8.60;0.30;;;6.80;99.90;;;;;;5097394;28;20089;-72
2020/12/01 03:06:40;;;;;;;10.40;0.82;;;6.80;99.90;;;;;;5097375;28;20048;-72
2020/12/01 03:09:15;;;;;;;58.00;2.55;;;6.80;99.90;;;;;;5097699;28;20024;-72
2020/12/01 03:11:41;;;;;;;2.92;0.10;;;6.90;99.90;;;;;;5078943;28;20107;-72
2020/12/01 03:14:07;;;;;;;10.20;0.20;;;6.80;99.90;;;;;;5078925;28;20058;-72
2020/12/01 03:16:32;;;;;;;3.58;0.00;;;6.80;99.90;;;;;;5078873;28;20046;-72
2020/12/01 03:18:58;;;;;;;4.35;0.10;;;6.80;99.90;;;;;;5096638;28;20031;-72
2020/12/01 03:21:24;;;;;;;8.43;0.35;;;6.90;99.90;;;;;;5096742;28;20409;-71
2020/12/01 03:23:49;;;;;;;7.47;0.10;;;6.90;99.90;;;;;;5097369;28;20076;-71
2020/12/01 03:26:17;;;;;;;11.15;1.15;;;6.90;99.90;;;;;;5078724;28;20032;-72
2020/12/01 03:28:44;;;;;;;5.85;0.80;;;6.90;99.90;;;;;;5096850;28;20032;-72
2020/12/01 03:31:12;;;;;;;11.43;0.50;;;6.80;99.90;;;;;;5096298;28;20020;-72
2020/12/01 03:33:38;;;;;;;32.72;1.08;;;6.80;99.90;;;;;;5096636;28;20086;-72
2020/12/01 03:36:03;;;;;;;5.65;0.30;;;6.80;99.90;;;;;;5095881;28;20485;-72
2020/12/01 03:38:29;;;;;;;12.50;0.20;;;6.70;99.90;;;;;;5096502;28;20552;-72
2020/12/01 03:40:55;;;;;;;2.33;0.20;;;6.70;99.90;;;;;;5096446;28;20052;-72
2020/12/01 03:43:20;;;;;;;5.93;0.00;;;6.70;99.90;;;;;;5096347;28;20021;-72
2020/12/01 03:45:46;;;;;;;12.95;0.93;;;6.70;99.90;;;;;;5096174;28;20028;-72
2020/12/01 03:48:11;;;;;;;4.53;0.00;;;6.80;99.90;;;;;;5096443;28;20081;-72
2020/12/01 03:50:37;;;;;;;2.90;0.25;;;6.80;99.90;;;;;;5096458;28;20017;-72
2020/12/01 03:53:03;;;;;;;6.85;0.43;;;6.80;99.90;;;;;;5077771;28;20013;-72
2020/12/01 03:55:29;;;;;;;2.03;0.05;;;6.80;99.90;;;;;;5077593;28;20500;-72
2020/12/01 03:57:54;;;;;;;5.82;0.05;;;6.80;99.90;;;;;;5095726;28;20024;-72
2020/12/01 04:00:23;;;;;;;12.57;0.47;;;6.90;99.90;;;;;;5095896;28;20028;-72
2020/12/01 04:02:49;;;;;;;4.85;0.00;;;6.90;99.90;;;;;;5077718;28;20028;-72
2020/12/01 04:05:17;;;;;;;4.95;0.35;;;7.00;99.90;;;;;;5095930;28;20423;-72
2020/12/01 04:07:43;;;;;;;7.80;0.35;;;7.00;99.90;;;;;;5077197;28;20027;-72
2020/12/01 04:10:12;;;;;;;4.75;0.13;;;7.00;99.90;;;;;;5095521;28;20024;-72
2020/12/01 04:12:37;;;;;;;2.80;0.00;;;7.00;99.90;;;;;;5077560;28;20024;-72
2020/12/01 04:15:03;;;;;;;3.13;0.30;;;7.10;99.90;;;;;;5095339;28;20044;-71
2020/12/01 04:17:30;;;;;;;3.38;0.05;;;7.10;99.90;;;;;;5095278;28;20034;-72
2020/12/01 04:19:55;;;;;;;7.10;0.00;;;7.10;99.90;;;;;;5077374;28;20026;-71
2020/12/01 04:22:21;;;;;;;3.45;0.00;;;7.20;99.90;;;;;;5096079;28;20418;-71
2020/12/01 04:24:47;;;;;;;3.35;0.10;;;7.20;99.90;;;;;;5096050;28;20047;-71
2020/12/01 04:27:14;;;;;;;6.28;0.00;;;7.30;99.90;;;;;;5095227;28;20024;-71
2020/12/01 04:29:41;;;;;;;8.55;0.10;;;7.20;99.90;;;;;;5095701;28;20444;-71
2020/12/01 04:32:07;;;;;;;5.38;0.20;;;7.30;99.90;;;;;;5095297;28;20024;-71
2020/12/01 04:34:33;;;;;;;2.60;0.00;;;7.30;99.90;;;;;;5077066;28;20027;-71
2020/12/01 04:36:59;;;;;;;5.00;0.20;;;7.30;99.90;;;;;;5095429;28;20028;-72
2020/12/01 04:39:25;;;;;;;7.43;0.00;;;7.30;99.90;;;;;;5077012;28;20028;-71
2020/12/01 04:41:51;;;;;;;4.10;0.00;;;7.30;99.90;;;;;;5075597;28;20030;-71
2020/12/01 04:44:35;;;;;;;4.65;0.22;;;7.30;99.90;;;;;;5076480;28;20024;-72
2020/12/01 04:47:05;;;;;;;3.50;0.47;;;7.30;99.90;;;;;;5094534;28;20028;-72
2020/12/01 04:49:45;;;;;;;5.90;0.10;;;7.40;99.90;;;;;;5094339;28;20096;-72
2020/12/01 04:52:32;;;;;;;3.55;0.10;;;7.40;99.90;;;;;;5094446;28;20415;-72
2020/12/01 04:55:00;;;;;;;3.47;0.10;;;7.50;99.90;;;;;;5094938;28;20049;-72
2020/12/01 04:58:07;;;;;;;7.63;0.20;;;7.50;99.90;;;;;;5094447;28;20038;-72
2020/12/01 05:00:41;;;;;;;2.90;0.25;;;7.60;99.90;;;;;;5094954;28;20020;-72
2020/12/01 05:03:14;;;;;;;3.13;0.03;;;7.60;99.90;;;;;;5094652;28;20109;-72
2020/12/01 05:08:41;;;;;;;1.42;0.03;;;7.80;99.90;;;;;;5094258;28;20107;-72
2020/12/01 05:11:37;;;;;;;2.08;0.30;;;7.90;99.90;;;;;;5095066;28;20027;-72
2020/12/01 05:14:14;;;;;;;4.43;0.40;;;8.10;99.90;;;;;;5094114;28;20028;-72
2020/12/01 05:17:01;;;;;;;4.55;0.73;;;8.10;99.90;;;;;;5094629;28;20024;-73
2020/12/01 05:19:53;;;;;;;8.13;0.00;;;8.10;99.90;;;;;;5076314;28;20110;-72
2020/12/01 05:22:20;;;;;;;7.22;0.15;;;8.20;99.90;;;;;;5090793;28;20040;-71
2020/12/01 05:24:50;;;;;;;2.88;0.10;;;8.20;99.90;;;;;;5094523;28;20537;-72
2020/12/01 05:27:27;;;;;;;5.57;0.30;;;8.30;99.90;;;;;;5094431;28;20110;-72
2020/12/01 05:30:13;;;;;;;9.18;0.55;;;8.30;99.90;;;;;;5076169;28;20481;-72
2020/12/01 05:32:52;;;;;;;5.22;0.35;;;8.30;99.90;;;;;;5094588;28;20115;-72
2020/12/01 05:35:23;;;;;;;5.78;0.50;;;8.30;99.90;;;;;;5094300;28;20028;-72
2020/12/01 05:37:53;;;;;;;0.93;0.00;;;8.30;99.90;;;;;;5093875;28;20028;-72
2020/12/01 05:40:19;;;;;;;1.33;0.20;;;8.30;99.90;;;;;;5094211;28;20035;-72
2020/12/01 05:42:46;;;;;;;5.40;0.00;;;8.30;99.90;;;;;;5094315;28;20021;-72
2020/12/01 05:45:38;;;;;;;5.95;0.35;;;8.30;99.90;;;;;;5076183;28;20020;-71
2020/12/01 05:48:33;;;;;;;1.05;0.00;;;8.40;99.90;;;;;;5090201;28;20408;-72
2020/12/01 05:51:10;;;;;;;2.08;0.00;;;8.30;99.90;;;;;;5094431;28;20031;-72
2020/12/01 05:53:35;;;;;;;3.38;0.00;;;8.40;99.90;;;;;;5097225;28;20424;-72
2020/12/01 05:56:18;;;;;;;2.67;0.22;;;8.40;99.90;;;;;;5098069;28;20020;-72
2020/12/01 05:59:00;;;;;;;2.92;0.10;;;8.30;99.90;;;;;;5098536;28;20491;-72
2020/12/01 06:01:27;;;;;;;7.75;0.40;;;8.80;99.90;;;;;;5098213;28;20026;-71
2020/12/01 06:04:24;;;;;;;4.00;0.65;;;8.40;99.90;;;;;;5098364;28;20044;-71
2020/12/01 06:06:52;;;;;;;9.93;0.43;;;8.40;99.90;;;;;;5098631;28;20108;-72
2020/12/01 06:09:47;;;;;;;3.00;0.10;;;8.40;99.90;;;;;;5079802;28;20020;-71
2020/12/01 06:12:45;;;;;;;3.45;0.00;;;8.40;99.90;;;;;;5097880;28;20024;-71
2020/12/01 06:15:14;;;;;;;;;;;8.40;99.90;;;;;;5098884;28;20032;-71
2020/12/01 06:17:51;;;;;;;1.88;0.00;;;8.40;99.90;;;;;;5097616;28;19966;-71
2020/12/01 06:20:24;;;;;;;1.33;0.10;;;8.40;99.90;;;;;;5097601;28;20070;-71
2020/12/01 06:23:06;;;;;;;1.25;0.00;;;8.40;99.90;;;;;;5097528;28;20052;-71
2020/12/01 06:25:53;;;;;;;4.75;0.00;;;8.40;99.90;;;;;;5079406;28;20025;-72
2020/12/01 06:28:28;;;;;;;4.10;0.03;;;8.40;99.90;;;;;;5079198;28;20032;-72
2020/12/01 06:31:21;;;;;;;5.30;0.47;;;8.40;99.90;;;;;;5097267;28;20111;-72
2020/12/01 06:33:59;;;;;;;3.60;0.28;;;8.30;99.90;;;;;;5097635;28;20016;-72
2020/12/01 06:36:37;;;;;;;9.45;0.85;;;8.30;99.90;;;;;;5097240;28;20024;-72
2020/12/01 06:39:32;;;;;;;10.50;0.73;;;8.30;99.90;;;;;;5097797;28;20415;-73
2020/12/01 06:42:11;;;;;;;15.45;1.08;;;8.20;99.90;;;;;;5097357;28;20028;-74
2020/12/01 06:44:40;;;;;;;8.68;1.58;;;8.20;99.90;;;;;;5078838;28;20023;-73
2020/12/01 06:47:05;;;;;;;23.67;2.38;;;8.20;99.90;;;;;;5097218;28;20407;-75
2020/12/01 06:49:34;;;;;;;20.60;1.13;;;8.20;99.90;;;;;;5097283;28;20027;-75
2020/12/01 06:52:04;;;;;;;16.42;1.65;;;8.10;99.90;;;;;;5097023;28;20024;-74
2020/12/01 06:54:29;;;;;;;30.25;2.92;;;8.20;99.90;;;;;;5078662;28;20071;-72
2020/12/01 06:57:20;;;;;;;13.63;1.40;;;8.20;99.90;;;;;;5096806;28;20056;-72
2020/12/01 06:59:46;;;;;;;19.40;1.85;;;8.20;99.90;;;;;;5078906;28;20081;-73
2020/12/01 07:02:21;;;;;;;19.20;1.65;;;8.10;99.90;;;;;;5096902;28;20059;-74
2020/12/01 07:04:47;;;;;;;23.17;1.85;;;8.20;99.90;;;;;;5094713;28;20119;-76
2020/12/01 07:07:31;;;;;;;24.63;1.95;;;8.10;99.90;;;;;;5097150;28;20021;-75
2020/12/01 07:09:57;;;;;;;15.27;1.23;;;8.10;99.90;;;;;;5097087;28;20028;-75
2020/12/01 07:12:29;;;;;;;26.90;2.95;;;8.10;99.90;;;;;;5097311;28;20063;-75
2020/12/01 07:15:12;;;;;;;25.52;0.95;;;8.10;99.90;;;;;;5097978;28;20016;-75
2020/12/01 07:17:45;;;;;;;23.50;1.75;;;8.10;99.90;;;;;;5097408;28;20107;-75
2020/12/01 07:20:19;;;;;;;15.45;2.50;;;8.10;99.90;;;;;;5097310;28;20031;-75
2020/12/01 07:22:55;;;;;;;19.27;1.75;;;8.10;99.90;;;;;;5079243;28;20396;-75
2020/12/01 07:25:46;;;;;;;24.50;1.25;;;8.10;99.90;;;;;;5097706;28;20488;-76
2020/12/01 07:28:24;;;;;;;23.08;2.45;;;8.10;99.90;;;;;;5078748;28;20020;-75
2020/12/01 07:31:00;;;;;;;13.52;1.17;;;8.10;99.90;;;;;;5079094;28;20091;-76
2020/12/01 07:33:33;;;;;;;16.15;1.70;;;8.10;99.90;;;;;;5078574;28;20499;-76
2020/12/01 07:36:12;;;;;;;13.15;1.25;;;8.10;99.90;;;;;;5096834;28;20473;-76
2020/12/01 07:38:43;;;;;;;17.50;2.10;;;8.10;99.90;;;;;;5096711;28;20082;-76
2020/12/01 07:41:25;;;;;;;20.75;0.88;;;8.10;99.90;;;;;;5097109;28;20093;-76
2020/12/01 07:44:11;;;;;;;24.17;1.48;;;8.20;99.90;;;;;;5096843;28;20044;-76
2020/12/01 07:46:51;;;;;;;30.10;2.50;;;8.20;99.90;;;;;;5097032;28;20020;-76
2020/12/01 07:49:23;;;;;;;19.58;1.65;;;8.20;99.90;;;;;;5097192;28;20027;-76
2020/12/01 07:52:09;;;;;;;21.10;2.55;;;8.20;99.90;;;;;;5078173;28;20073;-76
2020/12/01 07:54:39;;;;;;;24.92;2.65;;;8.20;99.90;;;;;;5096843;28;20035;-76
2020/12/01 07:57:31;;;;;;;14.80;1.20;;;8.20;99.90;;;;;;5078418;28;20028;-76
2020/12/01 07:59:58;;;;;;;19.25;0.55;;;8.20;99.90;;;;;;5092883;28;20036;-76
2020/12/01 08:02:28;;;;;;;21.30;1.77;;;8.20;99.90;;;;;;5077888;28;20489;-76
2020/12/01 08:05:11;;;;;;;17.25;1.73;;;8.20;99.90;;;;;;5096033;28;20036;-76
2020/12/01 08:07:36;;;;;;;18.45;1.00;;;8.20;99.90;;;;;;5078006;28;20034;-76
2020/12/01 08:10:11;;;;;;;22.25;1.73;;;8.20;99.90;;;;;;5078126;28;20427;-76
2020/12/01 08:12:41;;;;;;;13.70;1.70;;;8.20;99.90;;;;;;5096785;28;20469;-76
2020/12/01 08:15:14;;;;;;;12.27;0.90;;;8.20;99.90;;;;;;5096267;28;20031;-76
2020/12/01 08:17:39;;;;;;;26.52;3.28;;;8.20;99.90;;;;;;5078176;28;20122;-75
2020/12/01 08:20:06;;;;;;;20.67;1.35;;;8.20;99.90;;;;;;5096513;28;20051;-76
2020/12/01 08:22:36;;;;;;;22.95;3.25;;;8.20;99.90;;;;;;5077864;28;20028;-76
2020/12/01 08:25:05;;;;;;;24.88;2.83;;;8.20;99.90;;;;;;5096170;28;20388;-76
2020/12/01 08:27:52;;;;;;;32.33;2.13;;;9.90;99.90;;;;;;5078036;28;20031;-76
2020/12/01 08:30:28;;;;;;;20.20;1.13;;;8.20;99.90;;;;;;5096104;28;20035;-76
2020/12/01 08:33:07;;;;;;;22.52;1.83;;;8.20;99.90;;;;;;5096265;28;20561;-76
2020/12/01 08:35:49;;;;;;;21.75;2.10;;;8.20;99.90;;;;;;5096969;28;20031;-75
2020/12/01 08:38:38;;;;;;;17.63;1.48;;;8.20;99.90;;;;;;5095453;28;20028;-76
2020/12/01 08:41:38;;;;;;;16.48;1.83;;;8.20;99.90;;;;;;5096326;28;20484;-76
2020/12/01 08:44:24;;;;;;;23.92;1.08;;;8.20;99.90;;;;;;5095169;28;20027;-76
2020/12/01 08:46:51;;;;;;;23.98;1.20;;;8.20;99.90;;;;;;5095424;28;20028;-76
2020/12/01 08:52:02;;;;;;;17.92;1.00;;;8.20;99.90;;;;;;5095588;28;20089;-76
2020/12/01 08:54:37;;;;;;;21.35;1.67;;;8.20;99.90;;;;;;5076928;28;20460;-76
2020/12/01 08:57:08;;;;;;;24.17;2.50;;;8.20;99.90;;;;;;5095155;28;20125;-76
2020/12/01 08:59:46;;;;;;;15.90;1.05;;;8.20;99.90;;;;;;5076875;28;20118;-76
2020/12/01 09:02:13;;;;;;;14.77;1.25;;;8.30;99.90;;;;;;5094874;28;20012;-75
2020/12/01 09:05:03;;;;;;;14.73;0.50;;;8.30;99.90;;;;;;5098130;22;20420;-76
2020/12/01 09:07:34;;;;;;;23.80;2.00;;;8.30;99.90;;;;;;5075177;28;20030;-76
2020/12/01 09:10:31;;;;;;;18.77;1.40;;;8.40;99.90;;;;;;5074622;28;20059;-76
2020/12/01 09:24:16;;;;;;;19.55;1.23;;;8.50;99.90;;;;;;5075066;28;20035;-76
2020/12/01 09:26:42;;;;;;;22.88;1.27;;;8.50;99.90;;;;;;5074409;28;20031;-76
2020/12/01 09:29:08;;;;;;;18.35;1.10;;;8.50;99.90;;;;;;5056217;28;20017;-76
2020/12/01 09:31:37;;;;;;;10.77;0.40;;;8.50;99.90;;;;;;5056391;28;20481;-76
2020/12/01 09:34:02;;;;;;;22.05;2.20;;;8.60;99.90;;;;;;5074248;28;20388;-76
2020/12/01 09:36:28;;;;;;;15.48;0.77;;;8.60;99.90;;;;;;5056550;28;20024;-76
2020/12/01 09:38:54;;;;;;;19.40;1.77;;;8.60;99.90;;;;;;5074472;28;20067;-76
2020/12/01 09:41:23;;;;;;;15.95;2.28;;;8.60;99.90;;;;;;5056521;28;20103;-76
2020/12/01 09:46:29;;;;;;;15.43;1.50;;;8.60;99.90;;;;;;5074037;28;20028;-76
2020/12/01 09:48:54;;;;;;;13.38;0.95;;;8.60;99.90;;;;;;5056271;28;20066;-76
2020/12/01 09:51:20;;;;;;;7.30;0.98;;;8.70;99.90;;;;;;5056442;28;20029;-76
2020/12/01 09:54:18;;;;;;;11.40;1.50;;;8.60;99.90;;;;;;5074054;28;20020;-76
2020/12/01 09:56:39;;;;;;;8.90;0.70;;;8.70;99.90;;;;;;5073518;28;20036;-76
2020/12/01 10:12:55;;;;;;;13.63;1.13;;;9.00;99.90;;;;;;5074647;28;20036;-76
2020/12/01 10:18:39;;;;;;;12.73;1.30;;;9.00;99.90;;;;;;5074526;28;20120;-76
2020/12/01 10:21:33;;;;;;;13.55;0.63;;;9.00;99.90;;;;;;5073769;28;20094;-76
2020/12/01 10:25:01;;;;;;;11.90;0.57;;;9.00;99.90;;;;;;5073433;28;20028;-76
2020/12/01 10:30:49;;;;;;;9.50;0.47;;;9.00;99.90;;;;;;5075336;28;20032;-76
2020/12/01 10:32:33;;;;;;;15.85;0.95;;;9.10;99.90;;;;;;5073782;28;20048;-76
2020/12/01 10:37:20;;;;;;;14.30;2.28;;;9.10;99.90;;;;;;5074120;28;20082;-76
2020/12/01 10:39:46;;;;;;;7.88;0.30;;;9.00;99.90;;;;;;5075106;28;20017;-76
2020/12/01 10:42:14;;;;;;;20.30;0.90;;;9.00;99.90;;;;;;5058868;28;20055;-76
2020/12/01 10:44:40;;;;;;;17.15;0.80;;;9.00;99.90;;;;;;5076559;28;20028;-76
2020/12/01 10:47:05;;;;;;;13.40;0.52;;;9.00;99.90;;;;;;5076887;28;20388;-76
2020/12/01 10:49:31;;;;;;;16.48;1.85;;;9.00;99.90;;;;;;5077105;28;20465;-76
2020/12/01 10:51:57;;;;;;;12.45;1.50;;;9.00;99.90;;;;;;5076784;28;20032;-76
2020/12/01 10:54:22;;;;;;;9.48;0.60;;;9.10;99.90;;;;;;5076801;28;20396;-76
2020/12/01 10:56:49;;;;;;;7.93;0.77;;;9.10;99.90;;;;;;5077022;28;20036;-76
2020/12/01 10:59:15;;;;;;;11.60;0.77;;;9.00;99.90;;;;;;5076726;28;20100;-76
2020/12/01 11:01:41;;;;;;;12.60;0.38;;;9.00;99.90;;;;;;5058769;28;20028;-76
2020/12/01 11:04:07;;;;;;;6.82;0.73;;;9.00;99.90;;;;;;5076728;28;20033;-76
2020/12/01 11:06:32;;;;;;;15.38;1.20;;;9.10;99.90;;;;;;5058492;28;20028;-76
2020/12/01 11:08:58;;;;;;;11.23;1.10;;;9.10;99.90;;;;;;5058685;28;20021;-76
2020/12/01 11:11:23;;;;;;;13.98;0.82;;;9.10;99.90;;;;;;5058749;28;20027;-76
2020/12/01 11:13:49;;;;;;;14.05;1.15;;;9.10;99.90;;;;;;5077308;28;20024;-76
2020/12/01 11:16:15;;;;;;;15.57;1.70;;;9.20;99.90;;;;;;5058531;28;20016;-76
2020/12/01 11:18:40;;;;;;;16.80;1.63;;;9.30;99.90;;;;;;5076636;28;20032;-76
2020/12/01 11:21:06;;;;;;;24.02;1.20;;;9.30;99.90;;;;;;5076365;28;20021;-76
2020/12/01 11:23:32;;;;;;;15.40;1.27;;;9.40;99.90;;;;;;5076423;28;20016;-76
2020/12/01 11:25:57;;;;;;;14.95;0.43;;;9.40;99.90;;;;;;5076352;28;20386;-76
2020/12/01 11:28:23;;;;;;;16.67;1.55;;;9.40;99.90;;;;;;5075914;28;20397;-76
2020/12/01 11:30:49;;;;;;;16.70;0.45;;;9.40;99.90;;;;;;5058119;28;20091;-76
2020/12/01 11:33:14;;;;;;;16.83;1.33;;;9.50;99.90;;;;;;5076211;28;20012;-76
2020/12/01 11:35:40;;;;;;;9.55;1.08;;;9.50;99.90;;;;;;5076649;28;20081;-76
2020/12/01 11:38:05;;;;;;;9.30;0.57;;;9.50;99.90;;;;;;5076196;28;20032;-76
2020/12/01 11:40:31;;;;;;;15.93;1.02;;;9.50;99.90;;;;;;5058490;28;20021;-76
2020/12/01 11:42:57;;;;;;;18.73;3.47;;;9.60;99.90;;;;;;5076043;28;20159;-76
2020/12/01 11:45:23;;;;;;;15.52;1.48;;;9.60;99.90;;;;;;5057809;28;20020;-76
2020/12/01 11:47:48;;;;;;;17.15;0.63;;;9.60;99.90;;;;;;5075462;28;20082;-76
2020/12/01 11:50:14;;;;;;;13.02;0.82;;;9.70;99.90;;;;;;5075122;28;20115;-76
2020/12/01 11:52:40;;;;;;;16.45;1.00;;;9.70;99.90;;;;;;5075942;28;20021;-76
2020/12/01 11:55:07;;;;;;;11.98;1.75;;;9.70;99.90;;;;;;5057999;28;20024;-76
2020/12/01 11:57:32;;;;;;;9.15;1.00;;;9.80;99.90;;;;;;5077400;28;20052;-76
2020/12/01 11:59:58;;;;;;;9.45;1.10;;;9.80;99.90;;;;;;5057425;28;20432;-77
2020/12/01 12:02:24;;;;;;;12.80;0.88;;;9.80;99.90;;;;;;5057860;28;20112;-77
2020/12/01 12:04:49;;;;;;;5.45;0.00;;;9.80;99.90;;;;;;5075614;28;20029;-77
2020/12/01 12:07:15;;;;;;;16.33;1.10;;;9.90;99.90;;;;;;5075019;28;20048;-77
2020/12/01 12:09:40;;;;;;;12.02;0.73;;;9.90;99.90;;;;;;5074838;28;20520;-77
2020/12/01 12:12:06;;;;;;;25.45;1.52;;;9.90;99.90;;;;;;5075256;28;20059;-77
2020/12/01 12:14:31;;;;;;;11.07;0.40;;;9.90;99.90;;;;;;5057242;28;20020;-77
2020/12/01 12:16:57;;;;;;;8.73;0.45;;;9.80;99.90;;;;;;5075105;28;20036;-77
2020/12/01 12:19:23;;;;;;;11.45;1.23;;;9.80;99.90;;;;;;5075319;28;20032;-77
2020/12/01 12:21:48;;;;;;;9.60;0.70;;;9.80;99.90;;;;;;5056858;28;20013;-77
2020/12/01 12:24:14;;;;;;;23.70;2.22;;;9.80;99.90;;;;;;5075303;28;20024;-77
2020/12/01 12:26:39;;;;;;;14.35;1.98;;;9.80;99.90;;;;;;5074724;28;20514;-77
2020/12/01 12:29:05;;;;;;;8.90;0.40;;;9.90;99.90;;;;;;5075119;28;20024;-76
2020/12/01 12:31:31;;;;;;;17.73;2.28;;;9.90;99.90;;;;;;5075043;28;20016;-76
2020/12/01 12:33:56;;;;;;;13.52;0.77;;;9.90;99.90;;;;;;5075350;28;20393;-77
2020/12/01 12:36:23;;;;;;;11.45;0.40;;;9.90;99.90;;;;;;5075030;28;20035;-77
2020/12/01 12:38:48;;;;;;;17.02;1.30;;;9.90;99.90;;;;;;5056723;28;20024;-77
2020/12/01 12:41:14;;;;;;;9.55;0.95;;;10.00;99.90;;;;;;5056735;28;20496;-77
2020/12/01 12:43:40;;;;;;;12.18;0.55;;;10.20;99.90;;;;;;5074397;28;20024;-76
2020/12/01 12:46:06;;;;;;;9.60;0.50;;;10.40;99.90;;;;;;5056672;28;20473;-77
2020/12/01 12:48:32;;;;;;;14.02;0.85;;;10.50;99.90;;;;;;5056833;28;20020;-77
2020/12/01 12:50:58;;;;;;;11.30;1.33;;;10.60;99.90;;;;;;5074546;28;20024;-77
2020/12/01 12:53:23;;;;;;;18.77;1.65;;;10.60;99.90;;;;;;5056120;28;20016;-77
2020/12/01 12:55:49;;;;;;;12.15;0.20;;;10.60;99.90;;;;;;5056424;28;20495;-77
2020/12/01 12:58:15;;;;;;;17.40;1.98;;;10.60;99.90;;;;;;5056357;28;20162;-77
2020/12/01 13:00:40;;;;;;;14.10;0.70;;;10.60;99.90;;;;;;5074558;28;20130;-77
2020/12/01 13:03:06;;;;;;;10.20;0.40;;;10.60;99.90;;;;;;5055729;28;20021;-78
2020/12/01 13:05:34;;;;;;;14.55;0.57;;;10.60;99.90;;;;;;5074517;28;20378;-77
2020/12/01 13:08:00;;;;;;;13.02;1.25;;;10.50;99.90;;;;;;5074450;28;20054;-77
2020/12/01 13:10:25;;;;;;;15.07;0.82;;;10.40;99.90;;;;;;5075174;28;20099;-77
2020/12/01 13:12:51;;;;;;;14.10;0.73;;;10.50;99.90;;;;;;5058616;28;20063;-75
2020/12/01 13:15:18;;;;;;;9.20;0.40;;;10.50;99.90;;;;;;5057525;28;20123;-75
2020/12/01 13:17:44;;;;;;;8.90;0.13;;;10.40;99.90;;;;;;5074136;28;20025;-76
2020/12/01 13:20:23;;;;;;;8.73;0.47;;;10.40;99.90;;;;;;5073970;28;20089;-76
2020/12/01 13:22:49;;;;;;;14.10;0.63;;;10.30;99.90;;;;;;5074213;28;20025;-75
2020/12/01 13:25:16;;;;;;;12.27;0.55;;;10.20;99.90;;;;;;5073663;28;20021;-75
2020/12/01 13:27:42;;;;;;;8.48;0.70;;;10.20;99.90;;;;;;5074357;28;20022;-76
2020/12/01 13:30:09;;;;;;;10.07;0.73;;;10.10;99.90;;;;;;5073696;28;20047;-76
2020/12/01 13:32:35;;;;;;;21.92;2.53;;;10.10;99.90;;;;;;5073463;28;20032;-76
2020/12/01 13:35:03;;;;;;;16.40;1.42;;;10.10;99.90;;;;;;5055555;28;20030;-76
2020/12/01 13:37:28;;;;;;;13.65;1.50;;;10.10;99.90;;;;;;5073727;28;20035;-76
2020/12/01 13:39:54;;;;;;;17.88;1.85;;;10.00;99.90;;;;;;5056004;28;20107;-76
2020/12/01 13:42:22;;;;;;;12.48;0.95;;;10.10;99.90;;;;;;5056064;28;20017;-76
2020/12/01 13:44:48;;;;;;;16.05;1.10;;;10.00;99.90;;;;;;5073698;28;20056;-76
2020/12/01 13:47:13;;;;;;;10.18;0.50;;;10.00;99.90;;;;;;5073969;28;20064;-76
2020/12/01 13:49:39;;;;;;;16.08;1.15;;;10.00;99.90;;;;;;5073754;28;20031;-76